sensor_id;sensor_type;location;lat;lon;timestamp;P1;durP1;ratioP1;P2;durP2;ratioP2
46757;SDS011;32509;47.750;-3.396;2022-12-18T00:01:02;22.45;;;16.85;;
46757;SDS011;32509;47.750;-3.396;2022-12-18T00:03:33;20.15;;;16.45;;
46757;SDS011;32509;47.750;-3.396;2022-12-18T00:06:00;20.17;;;16.33;;
46757;SDS011;32509;47.750;-3.396;2022-12-18T00:08:26;21.00;;;16.40;;
46757;SDS011;32509;47.750;-3.396;2022-12-18T00:10:52;26.20;;;17.85;;
46757;SDS011;32509;47.750;-3.396;2022-12-18T00:13:18;20.92;;;17.27;;
46757;SDS011;32509;47.750;-3.396;2022-12-18T00:15:44;20.15;;;14.98;;
46757;SDS011;32509;47.750;-3.396;2022-12-18T00:18:10;19.38;;;15.10;;
46757;SDS011;32509;47.750;-3.396;2022-12-18T00:20:38;18.38;;;15.65;;
46757;SDS011;32509;47.750;-3.396;2022-12-18T00:23:05;19.67;;;16.55;;
46757;SDS011;32509;47.750;-3.396;2022-12-18T00:25:35;19.30;;;15.45;;
46757;SDS011;32509;47.750;-3.396;2022-12-18T00:28:02;22.27;;;16.98;;
46757;SDS011;32509;47.750;-3.396;2022-12-18T00:30:28;19.95;;;15.95;;
46757;SDS011;32509;47.750;-3.396;2022-12-18T00:32:54;22.67;;;16.77;;
46757;SDS011;32509;47.750;-3.396;2022-12-18T00:35:20;21.42;;;15.20;;
46757;SDS011;32509;47.750;-3.396;2022-12-18T00:37:46;22.30;;;16.17;;
46757;SDS011;32509;47.750;-3.396;2022-12-18T00:40:12;18.02;;;15.70;;
46757;SDS011;32509;47.750;-3.396;2022-12-18T00:42:38;24.23;;;15.73;;
46757;SDS011;32509;47.750;-3.396;2022-12-18T00:45:23;20.30;;;16.25;;
46757;SDS011;32509;47.750;-3.396;2022-12-18T00:47:54;20.25;;;16.35;;
46757;SDS011;32509;47.750;-3.396;2022-12-18T00:50:20;20.10;;;16.40;;
46757;SDS011;32509;47.750;-3.396;2022-12-18T00:52:47;18.98;;;15.20;;
46757;SDS011;32509;47.750;-3.396;2022-12-18T00:55:13;19.90;;;16.10;;
46757;SDS011;32509;47.750;-3.396;2022-12-18T00:57:38;22.05;;;17.00;;
46757;SDS011;32509;47.750;-3.396;2022-12-18T01:00:05;17.52;;;15.27;;
46757;SDS011;32509;47.750;-3.396;2022-12-18T01:02:32;19.50;;;15.38;;
46757;SDS011;32509;47.750;-3.396;2022-12-18T01:04:58;21.88;;;16.30;;
46757;SDS011;32509;47.750;-3.396;2022-12-18T01:07:24;18.42;;;15.73;;
46757;SDS011;32509;47.750;-3.396;2022-12-18T01:09:49;19.70;;;15.35;;
46757;SDS011;32509;47.750;-3.396;2022-12-18T01:12:15;18.10;;;15.73;;
46757;SDS011;32509;47.750;-3.396;2022-12-18T01:14:41;20.50;;;15.07;;
46757;SDS011;32509;47.750;-3.396;2022-12-18T01:17:06;20.58;;;16.58;;
46757;SDS011;32509;47.750;-3.396;2022-12-18T01:19:32;20.80;;;15.60;;
46757;SDS011;32509;47.750;-3.396;2022-12-18T01:21:58;19.38;;;15.27;;
46757;SDS011;32509;47.750;-3.396;2022-12-18T01:24:24;20.17;;;15.95;;
46757;SDS011;32509;47.750;-3.396;2022-12-18T01:26:50;20.45;;;16.25;;
46757;SDS011;32509;47.750;-3.396;2022-12-18T01:29:15;20.30;;;15.43;;
46757;SDS011;32509;47.750;-3.396;2022-12-18T01:31:41;17.50;;;15.20;;
46757;SDS011;32509;47.750;-3.396;2022-12-18T01:34:07;19.75;;;15.90;;
46757;SDS011;32509;47.750;-3.396;2022-12-18T01:36:35;20.40;;;16.25;;
46757;SDS011;32509;47.750;-3.396;2022-12-18T01:39:06;18.20;;;15.65;;
46757;SDS011;32509;47.750;-3.396;2022-12-18T01:41:36;20.23;;;15.25;;
46757;SDS011;32509;47.750;-3.396;2022-12-18T01:49:59;17.38;;;15.32;;
46757;SDS011;32509;47.750;-3.396;2022-12-18T01:52:30;20.20;;;15.88;;
46757;SDS011;32509;47.750;-3.396;2022-12-18T01:54:57;22.63;;;15.52;;
46757;SDS011;32509;47.750;-3.396;2022-12-18T01:57:25;21.05;;;15.68;;
46757;SDS011;32509;47.750;-3.396;2022-12-18T01:59:52;19.13;;;15.48;;
46757;SDS011;32509;47.750;-3.396;2022-12-18T02:02:21;18.08;;;15.57;;
46757;SDS011;32509;47.750;-3.396;2022-12-18T02:04:47;18.83;;;16.08;;
46757;SDS011;32509;47.750;-3.396;2022-12-18T02:09:54;19.33;;;15.77;;
46757;SDS011;32509;47.750;-3.396;2022-12-18T02:15:36;22.35;;;15.27;;
46757;SDS011;32509;47.750;-3.396;2022-12-18T02:18:28;19.20;;;15.07;;
46757;SDS011;32509;47.750;-3.396;2022-12-18T02:23:40;19.15;;;14.50;;
46757;SDS011;32509;47.750;-3.396;2022-12-18T02:26:38;18.38;;;15.70;;
46757;SDS011;32509;47.750;-3.396;2022-12-18T02:29:16;18.70;;;16.10;;
46757;SDS011;32509;47.750;-3.396;2022-12-18T02:31:50;23.03;;;16.90;;
46757;SDS011;32509;47.750;-3.396;2022-12-18T02:34:19;21.93;;;16.67;;
46757;SDS011;32509;47.750;-3.396;2022-12-18T02:36:50;18.00;;;14.30;;
46757;SDS011;32509;47.750;-3.396;2022-12-18T02:39:18;17.60;;;14.65;;
46757;SDS011;32509;47.750;-3.396;2022-12-18T02:41:46;17.70;;;14.80;;
46757;SDS011;32509;47.750;-3.396;2022-12-18T02:44:13;17.52;;;15.40;;
46757;SDS011;32509;47.750;-3.396;2022-12-18T02:46:40;19.08;;;15.48;;
46757;SDS011;32509;47.750;-3.396;2022-12-18T02:52:18;21.45;;;16.48;;
46757;SDS011;32509;47.750;-3.396;2022-12-18T02:55:31;20.95;;;16.20;;
46757;SDS011;32509;47.750;-3.396;2022-12-18T02:58:16;23.45;;;16.05;;
46757;SDS011;32509;47.750;-3.396;2022-12-18T03:08:59;21.67;;;15.27;;
46757;SDS011;32509;47.750;-3.396;2022-12-18T03:11:29;18.23;;;15.00;;
46757;SDS011;32509;47.750;-3.396;2022-12-18T03:14:17;18.92;;;15.07;;
46757;SDS011;32509;47.750;-3.396;2022-12-18T03:16:47;19.63;;;14.55;;
46757;SDS011;32509;47.750;-3.396;2022-12-18T03:19:18;18.63;;;15.20;;
46757;SDS011;32509;47.750;-3.396;2022-12-18T03:21:49;19.63;;;15.20;;
46757;SDS011;32509;47.750;-3.396;2022-12-18T03:24:18;16.63;;;14.75;;
46757;SDS011;32509;47.750;-3.396;2022-12-18T03:26:46;22.52;;;16.27;;
46757;SDS011;32509;47.750;-3.396;2022-12-18T03:29:21;18.35;;;15.05;;
46757;SDS011;32509;47.750;-3.396;2022-12-18T03:32:12;18.65;;;15.23;;
46757;SDS011;32509;47.750;-3.396;2022-12-18T03:34:50;17.20;;;14.88;;
46757;SDS011;32509;47.750;-3.396;2022-12-18T03:37:18;17.65;;;13.90;;
46757;SDS011;32509;47.750;-3.396;2022-12-18T03:39:44;15.90;;;14.25;;
46757;SDS011;32509;47.750;-3.396;2022-12-18T03:42:29;19.13;;;14.98;;
46757;SDS011;32509;47.750;-3.396;2022-12-18T03:45:11;15.60;;;13.48;;
46757;SDS011;32509;47.750;-3.396;2022-12-18T03:48:00;19.60;;;15.32;;
46757;SDS011;32509;47.750;-3.396;2022-12-18T03:56:21;18.98;;;15.13;;
46757;SDS011;32509;47.750;-3.396;2022-12-18T03:58:50;17.38;;;13.80;;
46757;SDS011;32509;47.750;-3.396;2022-12-18T04:01:17;18.77;;;14.30;;
46757;SDS011;32509;47.750;-3.396;2022-12-18T04:03:47;17.60;;;14.02;;
46757;SDS011;32509;47.750;-3.396;2022-12-18T04:06:15;17.38;;;14.32;;
46757;SDS011;32509;47.750;-3.396;2022-12-18T04:08:41;18.08;;;14.98;;
46757;SDS011;32509;47.750;-3.396;2022-12-18T04:11:08;17.17;;;13.95;;
46757;SDS011;32509;47.750;-3.396;2022-12-18T04:13:35;18.42;;;14.70;;
46757;SDS011;32509;47.750;-3.396;2022-12-18T04:16:02;17.15;;;13.88;;
46757;SDS011;32509;47.750;-3.396;2022-12-18T04:18:28;18.17;;;14.60;;
46757;SDS011;32509;47.750;-3.396;2022-12-18T04:20:54;23.00;;;15.88;;
46757;SDS011;32509;47.750;-3.396;2022-12-18T04:23:19;17.80;;;15.10;;
46757;SDS011;32509;47.750;-3.396;2022-12-18T04:25:46;19.67;;;15.63;;
46757;SDS011;32509;47.750;-3.396;2022-12-18T04:28:13;17.10;;;14.68;;
46757;SDS011;32509;47.750;-3.396;2022-12-18T04:30:38;17.67;;;13.80;;
46757;SDS011;32509;47.750;-3.396;2022-12-18T04:33:08;20.35;;;15.85;;
46757;SDS011;32509;47.750;-3.396;2022-12-18T04:35:38;16.38;;;13.50;;
46757;SDS011;32509;47.750;-3.396;2022-12-18T04:38:05;19.52;;;15.98;;
46757;SDS011;32509;47.750;-3.396;2022-12-18T04:40:33;20.35;;;14.43;;
46757;SDS011;32509;47.750;-3.396;2022-12-18T04:42:59;16.63;;;14.18;;
46757;SDS011;32509;47.750;-3.396;2022-12-18T04:45:25;17.30;;;14.18;;
46757;SDS011;32509;47.750;-3.396;2022-12-18T04:47:51;21.45;;;16.08;;
46757;SDS011;32509;47.750;-3.396;2022-12-18T04:50:16;19.00;;;14.30;;
46757;SDS011;32509;47.750;-3.396;2022-12-18T04:52:42;19.13;;;14.43;;
46757;SDS011;32509;47.750;-3.396;2022-12-18T04:55:08;19.55;;;15.55;;
46757;SDS011;32509;47.750;-3.396;2022-12-18T04:57:34;17.83;;;14.52;;
46757;SDS011;32509;47.750;-3.396;2022-12-18T04:59:59;17.92;;;14.50;;
46757;SDS011;32509;47.750;-3.396;2022-12-18T05:02:25;18.60;;;15.85;;
46757;SDS011;32509;47.750;-3.396;2022-12-18T05:04:52;18.67;;;15.55;;
46757;SDS011;32509;47.750;-3.396;2022-12-18T05:07:18;16.25;;;14.48;;
46757;SDS011;32509;47.750;-3.396;2022-12-18T05:09:43;18.60;;;14.13;;
46757;SDS011;32509;47.750;-3.396;2022-12-18T05:12:09;19.70;;;15.30;;
46757;SDS011;32509;47.750;-3.396;2022-12-18T05:14:35;16.75;;;14.40;;
46757;SDS011;32509;47.750;-3.396;2022-12-18T05:17:01;19.42;;;15.40;;
46757;SDS011;32509;47.750;-3.396;2022-12-18T05:19:26;20.05;;;15.50;;
46757;SDS011;32509;47.750;-3.396;2022-12-18T05:21:52;17.42;;;15.15;;
46757;SDS011;32509;47.750;-3.396;2022-12-18T05:24:18;20.27;;;15.02;;
46757;SDS011;32509;47.750;-3.396;2022-12-18T05:26:43;17.45;;;13.50;;
46757;SDS011;32509;47.750;-3.396;2022-12-18T05:29:09;17.00;;;13.73;;
46757;SDS011;32509;47.750;-3.396;2022-12-18T05:31:37;20.63;;;14.57;;
46757;SDS011;32509;47.750;-3.396;2022-12-18T05:34:04;15.65;;;13.98;;
46757;SDS011;32509;47.750;-3.396;2022-12-18T05:36:30;20.70;;;15.95;;
46757;SDS011;32509;47.750;-3.396;2022-12-18T05:38:56;17.58;;;14.55;;
46757;SDS011;32509;47.750;-3.396;2022-12-18T05:41:22;21.63;;;14.65;;
46757;SDS011;32509;47.750;-3.396;2022-12-18T05:43:47;18.88;;;13.35;;
46757;SDS011;32509;47.750;-3.396;2022-12-18T05:46:14;16.45;;;14.05;;
46757;SDS011;32509;47.750;-3.396;2022-12-18T05:48:42;18.38;;;14.55;;
46757;SDS011;32509;47.750;-3.396;2022-12-18T05:51:10;19.83;;;14.02;;
46757;SDS011;32509;47.750;-3.396;2022-12-18T05:53:39;19.63;;;15.23;;
46757;SDS011;32509;47.750;-3.396;2022-12-18T05:56:06;15.82;;;13.30;;
46757;SDS011;32509;47.750;-3.396;2022-12-18T05:58:36;15.55;;;13.77;;
46757;SDS011;32509;47.750;-3.396;2022-12-18T06:01:06;17.25;;;14.27;;
46757;SDS011;32509;47.750;-3.396;2022-12-18T06:03:36;18.08;;;12.80;;
46757;SDS011;32509;47.750;-3.396;2022-12-18T06:06:02;20.52;;;14.02;;
46757;SDS011;32509;47.750;-3.396;2022-12-18T06:08:28;19.85;;;14.10;;
46757;SDS011;32509;47.750;-3.396;2022-12-18T06:10:54;20.10;;;15.05;;
46757;SDS011;32509;47.750;-3.396;2022-12-18T06:13:20;16.30;;;12.85;;
46757;SDS011;32509;47.750;-3.396;2022-12-18T06:15:46;18.40;;;13.32;;
46757;SDS011;32509;47.750;-3.396;2022-12-18T06:18:12;19.55;;;13.27;;
46757;SDS011;32509;47.750;-3.396;2022-12-18T06:20:37;16.02;;;14.30;;
46757;SDS011;32509;47.750;-3.396;2022-12-18T06:23:05;18.17;;;14.52;;
46757;SDS011;32509;47.750;-3.396;2022-12-18T06:25:31;16.25;;;14.50;;
46757;SDS011;32509;47.750;-3.396;2022-12-18T06:27:58;18.98;;;14.93;;
46757;SDS011;32509;47.750;-3.396;2022-12-18T06:30:24;21.33;;;14.95;;
46757;SDS011;32509;47.750;-3.396;2022-12-18T06:32:50;19.08;;;14.65;;
46757;SDS011;32509;47.750;-3.396;2022-12-18T06:35:16;17.88;;;13.52;;
46757;SDS011;32509;47.750;-3.396;2022-12-18T06:37:42;16.55;;;13.45;;
46757;SDS011;32509;47.750;-3.396;2022-12-18T06:40:08;17.88;;;13.45;;
46757;SDS011;32509;47.750;-3.396;2022-12-18T06:42:34;18.75;;;13.82;;
46757;SDS011;32509;47.750;-3.396;2022-12-18T06:44:59;15.30;;;13.65;;
46757;SDS011;32509;47.750;-3.396;2022-12-18T06:47:25;21.33;;;14.75;;
46757;SDS011;32509;47.750;-3.396;2022-12-18T06:49:51;17.27;;;13.60;;
46757;SDS011;32509;47.750;-3.396;2022-12-18T06:52:17;14.90;;;13.30;;
46757;SDS011;32509;47.750;-3.396;2022-12-18T06:54:42;16.50;;;14.10;;
46757;SDS011;32509;47.750;-3.396;2022-12-18T06:57:08;14.98;;;12.77;;
46757;SDS011;32509;47.750;-3.396;2022-12-18T06:59:34;16.70;;;13.52;;
46757;SDS011;32509;47.750;-3.396;2022-12-18T07:01:59;15.85;;;13.35;;
46757;SDS011;32509;47.750;-3.396;2022-12-18T07:04:29;17.17;;;13.40;;
46757;SDS011;32509;47.750;-3.396;2022-12-18T07:06:55;16.13;;;14.32;;
46757;SDS011;32509;47.750;-3.396;2022-12-18T07:09:21;15.65;;;12.48;;
46757;SDS011;32509;47.750;-3.396;2022-12-18T07:11:46;16.90;;;13.63;;
46757;SDS011;32509;47.750;-3.396;2022-12-18T07:14:12;13.77;;;12.30;;
46757;SDS011;32509;47.750;-3.396;2022-12-18T07:16:38;14.27;;;12.70;;
46757;SDS011;32509;47.750;-3.396;2022-12-18T07:19:04;14.98;;;13.30;;
46757;SDS011;32509;47.750;-3.396;2022-12-18T07:21:29;16.08;;;13.07;;
46757;SDS011;32509;47.750;-3.396;2022-12-18T07:23:55;15.43;;;13.77;;
46757;SDS011;32509;47.750;-3.396;2022-12-18T07:26:21;14.75;;;13.10;;
46757;SDS011;32509;47.750;-3.396;2022-12-18T07:28:48;15.02;;;12.55;;
46757;SDS011;32509;47.750;-3.396;2022-12-18T07:31:18;15.02;;;12.57;;
46757;SDS011;32509;47.750;-3.396;2022-12-18T07:33:45;15.52;;;12.25;;
46757;SDS011;32509;47.750;-3.396;2022-12-18T07:36:12;13.30;;;11.80;;
46757;SDS011;32509;47.750;-3.396;2022-12-18T07:38:38;14.63;;;12.65;;
46757;SDS011;32509;47.750;-3.396;2022-12-18T07:41:10;13.30;;;11.98;;
46757;SDS011;32509;47.750;-3.396;2022-12-18T07:43:38;13.60;;;12.25;;
46757;SDS011;32509;47.750;-3.396;2022-12-18T07:46:05;15.88;;;13.20;;
46757;SDS011;32509;47.750;-3.396;2022-12-18T07:48:31;14.23;;;12.68;;
46757;SDS011;32509;47.750;-3.396;2022-12-18T07:50:58;16.52;;;13.63;;
46757;SDS011;32509;47.750;-3.396;2022-12-18T07:53:27;13.98;;;12.32;;
46757;SDS011;32509;47.750;-3.396;2022-12-18T07:55:57;13.73;;;11.85;;
46757;SDS011;32509;47.750;-3.396;2022-12-18T07:58:24;13.70;;;12.07;;
46757;SDS011;32509;47.750;-3.396;2022-12-18T08:00:49;12.70;;;11.32;;
46757;SDS011;32509;47.750;-3.396;2022-12-18T08:03:15;13.52;;;11.02;;
46757;SDS011;32509;47.750;-3.396;2022-12-18T08:05:41;13.90;;;12.38;;
46757;SDS011;32509;47.750;-3.396;2022-12-18T08:08:07;13.65;;;11.68;;
46757;SDS011;32509;47.750;-3.396;2022-12-18T08:10:33;13.50;;;11.85;;
46757;SDS011;32509;47.750;-3.396;2022-12-18T08:12:58;11.98;;;10.77;;
46757;SDS011;32509;47.750;-3.396;2022-12-18T08:15:24;12.98;;;11.52;;
46757;SDS011;32509;47.750;-3.396;2022-12-18T08:17:50;13.57;;;11.65;;
46757;SDS011;32509;47.750;-3.396;2022-12-18T08:20:16;12.00;;;10.75;;
46757;SDS011;32509;47.750;-3.396;2022-12-18T08:22:43;12.45;;;11.13;;
46757;SDS011;32509;47.750;-3.396;2022-12-18T08:25:09;12.68;;;9.85;;
46757;SDS011;32509;47.750;-3.396;2022-12-18T08:27:35;11.85;;;10.43;;
46757;SDS011;32509;47.750;-3.396;2022-12-18T08:30:01;12.68;;;11.00;;
46757;SDS011;32509;47.750;-3.396;2022-12-18T08:32:28;13.75;;;10.32;;
46757;SDS011;32509;47.750;-3.396;2022-12-18T08:34:54;11.02;;;9.10;;
46757;SDS011;32509;47.750;-3.396;2022-12-18T08:37:19;12.45;;;11.10;;
46757;SDS011;32509;47.750;-3.396;2022-12-18T08:39:45;12.35;;;9.95;;
46757;SDS011;32509;47.750;-3.396;2022-12-18T08:42:11;10.63;;;9.00;;
46757;SDS011;32509;47.750;-3.396;2022-12-18T08:44:55;13.95;;;10.35;;
46757;SDS011;32509;47.750;-3.396;2022-12-18T08:47:21;11.60;;;10.18;;
46757;SDS011;32509;47.750;-3.396;2022-12-18T08:49:47;11.25;;;9.52;;
46757;SDS011;32509;47.750;-3.396;2022-12-18T08:52:12;9.82;;;8.93;;
46757;SDS011;32509;47.750;-3.396;2022-12-18T08:54:39;13.00;;;9.65;;
46757;SDS011;32509;47.750;-3.396;2022-12-18T08:57:05;11.27;;;9.43;;
46757;SDS011;32509;47.750;-3.396;2022-12-18T08:59:31;13.85;;;10.40;;
46757;SDS011;32509;47.750;-3.396;2022-12-18T09:01:57;12.07;;;9.77;;
46757;SDS011;32509;47.750;-3.396;2022-12-18T09:04:23;12.40;;;10.20;;
46757;SDS011;32509;47.750;-3.396;2022-12-18T09:06:48;10.75;;;9.57;;
46757;SDS011;32509;47.750;-3.396;2022-12-18T09:09:14;12.98;;;9.77;;
46757;SDS011;32509;47.750;-3.396;2022-12-18T09:11:40;10.38;;;8.95;;
46757;SDS011;32509;47.750;-3.396;2022-12-18T09:14:06;12.35;;;8.93;;
46757;SDS011;32509;47.750;-3.396;2022-12-18T09:16:33;15.50;;;9.70;;
46757;SDS011;32509;47.750;-3.396;2022-12-18T09:19:00;12.10;;;9.40;;
46757;SDS011;32509;47.750;-3.396;2022-12-18T09:21:27;9.73;;;8.68;;
46757;SDS011;32509;47.750;-3.396;2022-12-18T09:23:55;16.05;;;10.48;;
46757;SDS011;32509;47.750;-3.396;2022-12-18T09:26:22;11.18;;;9.02;;
46757;SDS011;32509;47.750;-3.396;2022-12-18T09:28:49;12.98;;;9.15;;
46757;SDS011;32509;47.750;-3.396;2022-12-18T09:31:15;13.40;;;9.90;;
46757;SDS011;32509;47.750;-3.396;2022-12-18T09:33:43;13.55;;;10.38;;
46757;SDS011;32509;47.750;-3.396;2022-12-18T09:36:10;9.85;;;8.40;;
46757;SDS011;32509;47.750;-3.396;2022-12-18T09:38:38;11.70;;;8.50;;
46757;SDS011;32509;47.750;-3.396;2022-12-18T09:43:51;16.48;;;10.50;;
46757;SDS011;32509;47.750;-3.396;2022-12-18T09:46:25;16.30;;;9.77;;
46757;SDS011;32509;47.750;-3.396;2022-12-18T09:48:55;16.95;;;9.52;;
46757;SDS011;32509;47.750;-3.396;2022-12-18T09:51:39;17.77;;;10.63;;
46757;SDS011;32509;47.750;-3.396;2022-12-18T09:54:16;14.57;;;8.35;;
46757;SDS011;32509;47.750;-3.396;2022-12-18T09:56:46;17.70;;;8.90;;
46757;SDS011;32509;47.750;-3.396;2022-12-18T09:59:18;23.90;;;10.13;;
46757;SDS011;32509;47.750;-3.396;2022-12-18T10:01:49;12.73;;;9.63;;
46757;SDS011;32509;47.750;-3.396;2022-12-18T10:04:15;16.55;;;9.93;;
46757;SDS011;32509;47.750;-3.396;2022-12-18T10:06:52;18.13;;;10.98;;
46757;SDS011;32509;47.750;-3.396;2022-12-18T10:09:41;24.35;;;11.05;;
46757;SDS011;32509;47.750;-3.396;2022-12-18T10:15:24;22.73;;;11.68;;
46757;SDS011;32509;47.750;-3.396;2022-12-18T10:21:18;17.67;;;10.75;;
46757;SDS011;32509;47.750;-3.396;2022-12-18T10:26:27;22.52;;;11.18;;
46757;SDS011;32509;47.750;-3.396;2022-12-18T10:28:53;21.95;;;11.35;;
46757;SDS011;32509;47.750;-3.396;2022-12-18T10:31:21;15.60;;;9.52;;
46757;SDS011;32509;47.750;-3.396;2022-12-18T10:33:48;22.27;;;11.65;;
46757;SDS011;32509;47.750;-3.396;2022-12-18T10:36:14;24.85;;;12.90;;
46757;SDS011;32509;47.750;-3.396;2022-12-18T10:38:40;20.38;;;10.95;;
46757;SDS011;32509;47.750;-3.396;2022-12-18T10:43:47;21.05;;;11.50;;
46757;SDS011;32509;47.750;-3.396;2022-12-18T10:46:16;16.98;;;12.27;;
46757;SDS011;32509;47.750;-3.396;2022-12-18T10:51:19;22.15;;;12.68;;
46757;SDS011;32509;47.750;-3.396;2022-12-18T10:53:56;21.70;;;12.90;;
46757;SDS011;32509;47.750;-3.396;2022-12-18T10:56:23;21.88;;;12.85;;
46757;SDS011;32509;47.750;-3.396;2022-12-18T10:58:55;22.20;;;13.50;;
46757;SDS011;32509;47.750;-3.396;2022-12-18T11:01:27;18.30;;;11.20;;
46757;SDS011;32509;47.750;-3.396;2022-12-18T11:06:22;17.98;;;10.88;;
46757;SDS011;32509;47.750;-3.396;2022-12-18T11:11:51;11.70;;;9.63;;
46757;SDS011;32509;47.750;-3.396;2022-12-18T11:14:25;17.17;;;11.60;;
46757;SDS011;32509;47.750;-3.396;2022-12-18T11:16:54;19.02;;;11.77;;
46757;SDS011;32509;47.750;-3.396;2022-12-18T11:19:25;13.63;;;10.88;;
46757;SDS011;32509;47.750;-3.396;2022-12-18T11:21:57;15.43;;;10.25;;
46757;SDS011;32509;47.750;-3.396;2022-12-18T11:24:31;15.77;;;10.52;;
46757;SDS011;32509;47.750;-3.396;2022-12-18T11:27:02;17.55;;;10.93;;
46757;SDS011;32509;47.750;-3.396;2022-12-18T11:29:36;16.13;;;11.35;;
46757;SDS011;32509;47.750;-3.396;2022-12-18T11:32:19;14.05;;;9.80;;
46757;SDS011;32509;47.750;-3.396;2022-12-18T11:38:21;13.48;;;9.20;;
46757;SDS011;32509;47.750;-3.396;2022-12-18T11:40:52;10.25;;;8.63;;
46757;SDS011;32509;47.750;-3.396;2022-12-18T11:49:03;17.17;;;8.70;;
46757;SDS011;32509;47.750;-3.396;2022-12-18T11:54:16;13.10;;;9.00;;
46757;SDS011;32509;47.750;-3.396;2022-12-18T12:13:23;19.90;;;9.77;;
46757;SDS011;32509;47.750;-3.396;2022-12-18T12:29:32;16.05;;;7.18;;
46757;SDS011;32509;47.750;-3.396;2022-12-18T12:37:43;21.05;;;6.80;;
46757;SDS011;32509;47.750;-3.396;2022-12-18T12:40:17;14.32;;;7.03;;
46757;SDS011;32509;47.750;-3.396;2022-12-18T12:42:47;20.50;;;7.25;;
46757;SDS011;32509;47.750;-3.396;2022-12-18T12:48:16;21.45;;;6.72;;
46757;SDS011;32509;47.750;-3.396;2022-12-18T12:50:51;13.00;;;7.20;;
46757;SDS011;32509;47.750;-3.396;2022-12-18T12:53:23;20.17;;;8.77;;
46757;SDS011;32509;47.750;-3.396;2022-12-18T12:55:54;20.52;;;9.00;;
46757;SDS011;32509;47.750;-3.396;2022-12-18T13:09:08;21.20;;;7.78;;
46757;SDS011;32509;47.750;-3.396;2022-12-18T13:11:35;18.45;;;6.55;;
46757;SDS011;32509;47.750;-3.396;2022-12-18T13:20:03;11.25;;;5.90;;
46757;SDS011;32509;47.750;-3.396;2022-12-18T13:22:48;17.75;;;6.50;;
46757;SDS011;32509;47.750;-3.396;2022-12-18T13:28:13;15.88;;;5.90;;
46757;SDS011;32509;47.750;-3.396;2022-12-18T13:30:59;18.40;;;5.97;;
46757;SDS011;32509;47.750;-3.396;2022-12-18T13:39:15;18.45;;;6.00;;
46757;SDS011;32509;47.750;-3.396;2022-12-18T13:41:50;19.98;;;5.57;;
46757;SDS011;32509;47.750;-3.396;2022-12-18T13:44:56;14.45;;;5.25;;
46757;SDS011;32509;47.750;-3.396;2022-12-18T13:47:27;21.45;;;6.63;;
46757;SDS011;32509;47.750;-3.396;2022-12-18T13:49:57;16.95;;;7.20;;
46757;SDS011;32509;47.750;-3.396;2022-12-18T13:52:28;20.30;;;5.97;;
46757;SDS011;32509;47.750;-3.396;2022-12-18T13:55:04;17.75;;;5.63;;
46757;SDS011;32509;47.750;-3.396;2022-12-18T13:57:33;17.90;;;5.53;;
46757;SDS011;32509;47.750;-3.396;2022-12-18T14:02:47;19.63;;;6.47;;
46757;SDS011;32509;47.750;-3.396;2022-12-18T14:05:33;22.65;;;5.85;;
46757;SDS011;32509;47.750;-3.396;2022-12-18T14:08:03;19.13;;;5.53;;
46757;SDS011;32509;47.750;-3.396;2022-12-18T14:10:33;16.10;;;5.18;;
46757;SDS011;32509;47.750;-3.396;2022-12-18T14:13:02;16.15;;;7.35;;
46757;SDS011;32509;47.750;-3.396;2022-12-18T14:20:39;14.15;;;5.10;;
46757;SDS011;32509;47.750;-3.396;2022-12-18T14:28:53;20.10;;;6.20;;
46757;SDS011;32509;47.750;-3.396;2022-12-18T14:31:29;21.67;;;5.47;;
46757;SDS011;32509;47.750;-3.396;2022-12-18T14:33:56;14.20;;;5.00;;
46757;SDS011;32509;47.750;-3.396;2022-12-18T14:36:26;17.77;;;5.85;;
46757;SDS011;32509;47.750;-3.396;2022-12-18T14:38:54;19.73;;;7.50;;
46757;SDS011;32509;47.750;-3.396;2022-12-18T14:41:22;14.60;;;5.50;;
46757;SDS011;32509;47.750;-3.396;2022-12-18T14:43:49;16.35;;;5.03;;
46757;SDS011;32509;47.750;-3.396;2022-12-18T14:48:58;12.15;;;5.07;;
46757;SDS011;32509;47.750;-3.396;2022-12-18T14:51:26;14.02;;;4.65;;
46757;SDS011;32509;47.750;-3.396;2022-12-18T14:54:01;10.52;;;4.55;;
46757;SDS011;32509;47.750;-3.396;2022-12-18T14:56:32;12.27;;;4.65;;
46757;SDS011;32509;47.750;-3.396;2022-12-18T14:59:01;12.00;;;4.57;;
46757;SDS011;32509;47.750;-3.396;2022-12-18T15:01:31;14.50;;;4.30;;
46757;SDS011;32509;47.750;-3.396;2022-12-18T15:04:02;16.20;;;4.57;;
46757;SDS011;32509;47.750;-3.396;2022-12-18T15:08:55;12.32;;;4.93;;
46757;SDS011;32509;47.750;-3.396;2022-12-18T15:11:30;13.70;;;4.70;;
46757;SDS011;32509;47.750;-3.396;2022-12-18T15:14:00;13.70;;;4.60;;
46757;SDS011;32509;47.750;-3.396;2022-12-18T15:16:49;12.23;;;4.47;;
46757;SDS011;32509;47.750;-3.396;2022-12-18T15:19:20;12.05;;;4.82;;
46757;SDS011;32509;47.750;-3.396;2022-12-18T15:21:47;17.58;;;4.78;;
46757;SDS011;32509;47.750;-3.396;2022-12-18T15:24:21;19.63;;;5.13;;
46757;SDS011;32509;47.750;-3.396;2022-12-18T15:26:51;20.05;;;4.38;;
46757;SDS011;32509;47.750;-3.396;2022-12-18T15:29:19;16.95;;;4.75;;
46757;SDS011;32509;47.750;-3.396;2022-12-18T15:31:57;24.00;;;5.53;;
46757;SDS011;32509;47.750;-3.396;2022-12-18T15:34:24;15.65;;;4.30;;
46757;SDS011;32509;47.750;-3.396;2022-12-18T15:36:51;18.55;;;4.82;;
46757;SDS011;32509;47.750;-3.396;2022-12-18T15:39:17;12.98;;;4.13;;
46757;SDS011;32509;47.750;-3.396;2022-12-18T15:41:43;15.55;;;3.72;;
46757;SDS011;32509;47.750;-3.396;2022-12-18T15:44:29;16.33;;;4.13;;
46757;SDS011;32509;47.750;-3.396;2022-12-18T15:46:56;15.90;;;4.43;;
46757;SDS011;32509;47.750;-3.396;2022-12-18T15:49:22;11.85;;;4.35;;
46757;SDS011;32509;47.750;-3.396;2022-12-18T15:51:51;10.75;;;3.63;;
46757;SDS011;32509;47.750;-3.396;2022-12-18T15:54:19;26.25;;;6.45;;
46757;SDS011;32509;47.750;-3.396;2022-12-18T15:57:08;12.20;;;3.95;;
46757;SDS011;32509;47.750;-3.396;2022-12-18T16:02:16;9.35;;;4.03;;
46757;SDS011;32509;47.750;-3.396;2022-12-18T16:04:43;16.48;;;3.95;;
46757;SDS011;32509;47.750;-3.396;2022-12-18T16:07:09;10.02;;;4.15;;
46757;SDS011;32509;47.750;-3.396;2022-12-18T16:09:34;15.50;;;4.90;;
46757;SDS011;32509;47.750;-3.396;2022-12-18T16:12:01;16.23;;;3.72;;
46757;SDS011;32509;47.750;-3.396;2022-12-18T16:14:28;15.82;;;4.28;;
46757;SDS011;32509;47.750;-3.396;2022-12-18T16:16:56;13.98;;;4.13;;
46757;SDS011;32509;47.750;-3.396;2022-12-18T16:19:23;9.90;;;4.20;;
46757;SDS011;32509;47.750;-3.396;2022-12-18T16:21:50;11.27;;;4.13;;
46757;SDS011;32509;47.750;-3.396;2022-12-18T16:24:18;16.65;;;5.07;;
46757;SDS011;32509;47.750;-3.396;2022-12-18T16:26:47;18.42;;;5.68;;
46757;SDS011;32509;47.750;-3.396;2022-12-18T16:29:13;11.77;;;4.93;;
46757;SDS011;32509;47.750;-3.396;2022-12-18T16:31:39;18.33;;;4.80;;
46757;SDS011;32509;47.750;-3.396;2022-12-18T16:36:51;16.63;;;4.13;;
46757;SDS011;32509;47.750;-3.396;2022-12-18T16:39:18;14.05;;;5.00;;
46757;SDS011;32509;47.750;-3.396;2022-12-18T16:41:44;15.68;;;5.32;;
46757;SDS011;32509;47.750;-3.396;2022-12-18T16:44:11;14.93;;;4.40;;
46757;SDS011;32509;47.750;-3.396;2022-12-18T16:46:37;9.77;;;4.18;;
46757;SDS011;32509;47.750;-3.396;2022-12-18T16:49:04;18.40;;;5.28;;
46757;SDS011;32509;47.750;-3.396;2022-12-18T16:51:30;15.93;;;4.75;;
46757;SDS011;32509;47.750;-3.396;2022-12-18T16:53:56;20.33;;;5.05;;
46757;SDS011;32509;47.750;-3.396;2022-12-18T16:56:21;16.95;;;5.07;;
46757;SDS011;32509;47.750;-3.396;2022-12-18T16:58:51;10.55;;;4.95;;